Skelton, AK

8:13 AM AKST on February 14, 2016 (GMT -0900)
Eureka | | Change Station
CLOSE
Current Station
Airport
Location: Eureka,
Elevation: 3287 ft
Nearby Weather Stations

Elev 3287 ft 61.93 °N, 147.17 °W | Updated 17 minutes ago

Overcast
Overcast
16 °F
Feels Like 16 °F
N
0
Wind Variable Wind from North

Today
High -- | Low -- °F
--% Chance of Precip.
Yesterday
High -- | Low -- °F
Precip. -- in
Pressure 29.30 in
Visibility 10.0 miles
Clouds Overcast 1500 ft
Dew Point 14 °F
Humidity 93%
Rainfall 0.00 in
Snow Depth Not available.
8:37 AM 5:29 PM
Waxing Crescent, 43% visible
METAR PAZK 141656Z AUTO 00000KT 10SM OVC015 M09/M10 A2930 RMK AO1
Pressure 29.30 in
Visibility 10.0 miles
Clouds Overcast 1500 ft
Dew Point 14 °F
Humidity 93%
Rainfall 0.00 in
Snow Depth Not available.
8:37 AM 5:29 PM
Waxing Crescent, 43% visible
METAR PAZK 141656Z AUTO 00000KT 10SM OVC015 M09/M10 A2930 RMK AO1

10-Day Weather Forecast

Almanac

Astronomy

Feb. 14, 2016 Rise Set
Actual Time
Civil Twilight
Nautical Twilight
Astronomical Twilight
Moon
Length of Visible Light
Length of Day
Tomorrow will be .
, % of the Moon is Illuminated

Today's Extremes

State Highs State Lows

Community

WunderPhotos

Upload Photos

1,892,853 photos uploaded!

WunderBlog® & News

Nearby

Air Quality

  Air Quality AQ Index Pollutant
Not available.

Snow Depth

Station Depth Elevation

Earthquake Activity

City Distance Mag. Time & Date
Minimum magnitude displayed is 2.5.

Coastal Water Temperatures

Place Temperature

Stations

Nearby Weather Stations

Station Location Temp. Windchill Dew Point Humidity Wind Precip. Elev Updated Type
                   

Watches & Warnings

There are currently no watches in effect.